Cascade, Montana
Current Conditions -  °F | °C
As of 5:53 PM on Sunday 23 Nov 2014 (Local Time) from KGTF Reporting Station
Overcast Overcast  
Wind Chill: 30°   Ceiling: 8000
Heat Index: 39°   Visibility: 10mi
Dew Point: 21°   Wind: 16mph
Humidity: 49%   Direction: 230°SW
Pressure: 29.8"   Gusts: NA
Location:  47.27°N, 111.7°W
Report Text: KGTF 240053Z 23014KT 10SM OVC080 04/M06 A2980 RMK AO2 SLP124 T00391061
Loading
Personal Weather Stations






























Interactive Weather Map New forecast layout! Learn more

10-Day Weather Forecast

Advertisements
Track Severe Weather on mobile